Time;durP1;ratioP1;P1;durP2;ratioP2;P2;SDS_P1;SDS_P2;PMS_P1;PMS_P2;Temp;Humidity;BMP_temperature;BMP_pressure;BME280_temperature;BME280_humidity;BME280_pressure;Samples;Min_cycle;Max_cycle;Signal;HPM_P1;HPM_P2
2023/12/26 00:01:44;;;;;;;;;;;10.60;1.00;;;;;;5033729;28;19916;-85
2023/12/26 00:07:13;;;;;;;;;;;10.60;1.00;;;;;;5038031;28;19967;-84
2023/12/26 00:12:42;;;;;;;;;;;10.60;1.00;;;;;;5032584;28;20287;-84
2023/12/26 00:15:41;;;;;;;;;;;10.70;1.00;;;;;;5040638;28;19910;-84
2023/12/26 00:18:11;;;;;;;;;;;10.50;1.00;;;;;;5031327;28;19963;-84
2023/12/26 00:23:39;;;;;;;;;;;10.60;1.00;;;;;;5032908;28;19919;-84
2023/12/26 00:26:05;;;;;;;;;;;10.60;1.00;;;;;;5041471;28;19917;-84
2023/12/26 00:28:31;;;;;;;;;;;10.60;1.00;;;;;;5049432;28;19910;-85
2023/12/26 00:31:23;;;;;;;;;;;10.60;1.00;;;;;;5032782;28;19955;-85
2023/12/26 00:37:11;;;;;;;;;;;10.60;1.00;;;;;;5049957;28;19959;-85
2023/12/26 00:40:05;;;;;;;;;;;10.60;1.00;;;;;;5050665;28;19909;-84
2023/12/26 00:42:59;;;;;;;;;;;10.60;1.00;;;;;;5048556;28;19972;-84
2023/12/26 00:48:27;;;;;;;;;;;10.60;1.00;;;;;;5031448;28;19955;-85
2023/12/26 00:50:59;;;;;;;;;;;10.80;1.00;;;;;;5043896;28;19909;-75
2023/12/26 00:53:25;;;;;;;;;;;10.70;1.00;;;;;;5031229;28;20004;-75
2023/12/26 00:55:50;;;;;;;;;;;10.60;1.00;;;;;;5039147;28;20007;-75
2023/12/26 00:58:16;;;;;;;;;;;10.60;1.00;;;;;;5036326;28;19936;-75
2023/12/26 01:00:47;;;;;;;;;;;10.50;1.00;;;;;;5037139;28;19932;-75
2023/12/26 01:03:21;;;;;;;;;;;10.50;1.00;;;;;;5037917;28;19945;-75
2023/12/26 01:11:53;;;;;;;;;;;10.50;1.00;;;;;;5036398;28;19944;-85
2023/12/26 01:14:41;;;;;;;;;;;10.40;1.00;;;;;;5049833;28;20362;-84
2023/12/26 01:17:17;;;;;;;;;;;10.40;1.00;;;;;;5009792;28;20032;-85
2023/12/26 01:20:11;;;;;;;;;;;10.40;1.00;;;;;;5036256;28;19910;-85
2023/12/26 01:22:41;;;;;;;;;;;10.40;1.00;;;;;;5033600;28;20415;-84
2023/12/26 01:25:07;;;;;;;;;;;10.50;1.00;;;;;;5031785;28;19955;-85
2023/12/26 01:27:33;;;;;;;;;;;10.50;1.00;;;;;;5035814;28;19913;-85
2023/12/26 01:30:01;;;;;;;;;;;10.50;1.00;;;;;;5035737;28;19909;-85
2023/12/26 01:32:29;;;;;;;;;;;10.50;1.00;;;;;;5035644;28;20387;-85
2023/12/26 01:34:55;;;;;;;;;;;10.50;1.00;;;;;;5003643;28;20073;-85
2023/12/26 01:37:21;;;;;;;;;;;10.50;1.00;;;;;;5026789;28;20000;-75
2023/12/26 01:39:46;;;;;;;;;;;10.50;1.00;;;;;;5048579;28;20237;-75
2023/12/26 01:42:13;;;;;;;;;;;10.60;1.00;;;;;;5044165;28;19939;-74
2023/12/26 01:44:48;;;;;;;;;;;10.50;1.00;;;;;;5042149;28;19913;-74
2023/12/26 01:47:14;;;;;;;;;;;10.40;1.00;;;;;;5034272;28;19931;-75
2023/12/26 01:49:40;;;;;;;;;;;10.50;1.00;;;;;;5037014;28;20407;-74
2023/12/26 01:52:07;;;;;;;;;;;10.50;1.00;;;;;;5036022;28;19917;-75
2023/12/26 01:54:36;;;;;;;;;;;10.50;1.00;;;;;;5039718;28;19909;-75
2023/12/26 01:57:02;;;;;;;;;;;;;;;;;;5035009;28;20373;-75
2023/12/26 01:59:29;;;;;;;;;;;10.50;1.00;;;;;;5017615;28;19913;-75
2023/12/26 02:02:05;;;;;;;;;;;10.60;1.00;;;;;;5017557;28;19913;-75
2023/12/26 02:04:37;;;;;;;;;;;10.50;1.00;;;;;;5045007;28;19913;-75
2023/12/26 02:10:06;;;;;;;;;;;10.50;1.00;;;;;;5032120;28;19920;-85
2023/12/26 02:12:32;;;;;;;;;;;10.50;1.00;;;;;;5041388;28;19917;-84
2023/12/26 02:14:59;;;;;;;;;;;10.50;1.00;;;;;;5050382;28;19915;-84
2023/12/26 02:20:53;;;;;;;;;;;10.50;1.00;;;;;;5051211;28;19962;-86
2023/12/26 02:23:19;;;;;;;;;;;10.40;1.00;;;;;;5052068;28;19920;-85
2023/12/26 02:32:00;;;;;;;;;;;10.40;1.00;;;;;;5033519;28;19916;-85
2023/12/26 02:37:29;;;;;;;;;;;10.40;1.00;;;;;;5026860;28;19916;-74
2023/12/26 02:39:59;;;;;;;;;;;10.40;1.00;;;;;;5037794;28;19913;-75
2023/12/26 02:42:27;;;;;;;;;;;10.50;1.00;;;;;;5054491;28;19913;-74
2023/12/26 02:45:05;;;;;;;;;;;10.50;1.00;;;;;;5041184;28;19909;-75
2023/12/26 02:47:31;;;;;;;;;;;10.40;1.00;;;;;;5042273;28;19913;-74
2023/12/26 02:49:56;;;;;;;;;;;10.40;1.00;;;;;;5034371;28;20341;-74
2023/12/26 02:52:22;;;;;;;;;;;;;;;;;;5034233;28;19914;-85
2023/12/26 02:57:53;;;;;;;;;;;10.50;1.00;;;;;;5032191;28;19920;-84
2023/12/26 03:03:22;;;;;;;;;;;10.40;1.00;;;;;;5033555;28;19919;-84
2023/12/26 03:08:50;;;;;;;;;;;10.50;1.00;;;;;;5046578;28;20289;-74
2023/12/26 03:11:16;;;;;;;;;;;10.50;1.00;;;;;;5047652;28;19913;-75
2023/12/26 03:13:41;;;;;;;;;;;10.40;1.00;;;;;;5045239;28;20011;-75
2023/12/26 03:16:07;;;;;;;;;;;10.50;1.00;;;;;;5046453;28;19916;-74
2023/12/26 03:18:33;;;;;;;;;;;10.50;1.00;;;;;;5037949;28;20276;-74
2023/12/26 03:20:58;;;;;;;;;;;10.50;1.00;;;;;;5034118;28;20349;-75
2023/12/26 03:23:35;;;;;;;;;;;10.40;1.00;;;;;;5035652;28;20279;-75
2023/12/26 03:26:01;;;;;;;;;;;10.40;1.00;;;;;;5033652;28;19913;-75
2023/12/26 03:28:26;;;;;;;;;;;10.40;1.00;;;;;;5036292;28;19959;-75
2023/12/26 03:30:52;;;;;;;;;;;10.30;1.00;;;;;;5034658;28;19920;-75
2023/12/26 03:33:18;;;;;;;;;;;10.30;1.00;;;;;;5047362;28;19961;-74
2023/12/26 03:35:43;;;;;;;;;;;10.30;1.00;;;;;;5042767;28;20264;-75
2023/12/26 03:38:43;;;;;;;;;;;10.30;1.00;;;;;;5037161;28;19952;-84
2023/12/26 03:44:17;;;;;;;;;;;10.30;1.00;;;;;;5045927;28;20005;-85
2023/12/26 03:46:43;;;;;;;;;;;10.30;1.00;;;;;;5054273;28;19909;-85
2023/12/26 03:49:11;;;;;;;;;;;10.30;1.00;;;;;;5041810;28;19920;-84
2023/12/26 04:12:51;;;;;;;;;;;10.40;1.00;;;;;;5030758;28;20046;-84
2023/12/26 04:15:17;;;;;;;;;;;10.40;1.00;;;;;;5037826;28;20371;-84
2023/12/26 04:20:52;;;;;;;;;;;10.40;1.00;;;;;;5039601;28;19924;-84
2023/12/26 04:23:18;;;;;;;;;;;10.40;1.00;;;;;;5042925;28;20307;-84
2023/12/26 04:31:49;;;;;;;;;;;10.30;1.00;;;;;;5036659;28;19951;-85
2023/12/26 04:37:21;;;;;;;;;;;10.40;1.00;;;;;;5044100;28;19999;-84
2023/12/26 04:40:23;;;;;;;;;;;10.40;1.00;;;;;;5049625;28;19909;-84
2023/12/26 04:43:23;;;;;;;;;;;10.40;1.00;;;;;;5056239;28;19966;-85
2023/12/26 04:48:58;;;;;;;;;;;10.40;1.00;;;;;;5051707;28;19966;-84
2023/12/26 04:51:25;;;;;;;;;;;10.40;1.00;;;;;;5046709;28;19919;-84
2023/12/26 04:53:51;;;;;;;;;;;10.40;1.00;;;;;;5045185;28;19952;-75
2023/12/26 04:56:17;;;;;;;;;;;10.40;1.00;;;;;;5039928;28;19917;-74
2023/12/26 04:58:47;;;;;;;;;;;10.40;1.00;;;;;;5040600;28;19909;-74
2023/12/26 05:01:13;;;;;;;;;;;10.40;1.00;;;;;;5032694;28;19916;-75
2023/12/26 05:03:42;;;;;;;;;;;10.40;1.00;;;;;;5051884;28;19920;-76
2023/12/26 05:06:11;;;;;;;;;;;10.40;1.00;;;;;;5047998;28;19909;-75
2023/12/26 05:08:47;;;;;;;;;;;10.40;1.00;;;;;;5048916;28;19916;-85
2023/12/26 05:11:22;;;;;;;;;;;10.40;1.00;;;;;;5050100;28;19908;-84
2023/12/26 05:20:01;;;;;;;;;;;10.40;1.00;;;;;;5040571;28;19939;-84
2023/12/26 05:25:29;;;;;;;;;;;10.40;1.00;;;;;;5047148;28;19916;-85
2023/12/26 05:31:00;;;;;;;;;;;10.30;1.00;;;;;;5055887;28;19915;-86
2023/12/26 05:36:36;;;;;;;;;;;10.20;1.00;;;;;;5038930;28;20015;-85
2023/12/26 05:42:35;;;;;;;;;;;10.20;1.00;;;;;;5040171;28;19915;-83
2023/12/26 05:45:05;;;;;;;;;;;10.20;1.00;;;;;;5040986;28;19963;-84
2023/12/26 05:47:59;;;;;;;;;;;10.20;1.00;;;;;;5036034;28;19976;-84
2023/12/26 05:50:25;;;;;;;;;;;10.20;1.00;;;;;;5042350;28;19913;-83
2023/12/26 05:53:24;;;;;;;;;;;10.20;1.00;;;;;;5042823;28;19924;-85
2023/12/26 05:59:17;;;;;;;;;;;10.10;1.00;;;;;;5034006;28;20323;-85
2023/12/26 06:01:48;;;;;;;;;;;10.20;1.00;;;;;;5042412;28;19963;-85
2023/12/26 06:04:35;;;;;;;;;;;10.20;1.00;;;;;;5055737;28;19912;-84
2023/12/26 06:07:05;;;;;;;;;;;10.10;1.00;;;;;;5015880;28;19910;-83
2023/12/26 06:09:31;;;;;;;;;;;10.10;1.00;;;;;;5034564;28;19913;-75
2023/12/26 06:11:57;;;;;;;;;;;10.20;1.00;;;;;;5034963;28;19909;-75
2023/12/26 06:14:24;;;;;;;;;;;10.10;1.00;;;;;;5030309;28;19913;-75
2023/12/26 06:16:53;;;;;;;;;;;10.10;1.00;;;;;;5035014;28;20364;-75
2023/12/26 06:19:19;;;;;;;;;;;10.10;1.00;;;;;;5042595;28;19925;-75
2023/12/26 06:21:45;;;;;;;;;;;10.10;1.00;;;;;;5044091;28;19909;-75
2023/12/26 06:24:10;;;;;;;;;;;10.20;1.00;;;;;;5044066;28;20029;-75
2023/12/26 06:26:36;;;;;;;;;;;10.10;1.00;;;;;;5050504;28;20016;-75
2023/12/26 06:29:01;;;;;;;;;;;10.10;1.00;;;;;;5033452;28;19983;-75
2023/12/26 06:31:27;;;;;;;;;;;10.10;1.00;;;;;;5034595;28;19956;-75
2023/12/26 06:33:52;;;;;;;;;;;10.10;1.00;;;;;;5037723;28;20426;-75
2023/12/26 06:36:18;;;;;;;;;;;10.10;1.00;;;;;;5045289;28;19917;-75
2023/12/26 06:38:44;;;;;;;;;;;10.00;1.00;;;;;;5050885;28;20011;-75
2023/12/26 06:44:12;;;;;;;;;;;10.00;1.00;;;;;;5030302;28;19936;-85
2023/12/26 06:46:47;;;;;;;;;;;;;;;;;;5054141;28;20388;-82
2023/12/26 06:49:16;;;;;;;;;;;10.00;1.00;;;;;;5043361;28;19909;-84
2023/12/26 06:51:47;;;;;;;;;;;10.00;1.00;;;;;;5034596;28;19999;-83
2023/12/26 06:54:23;;;;;;;;;;;10.00;1.00;;;;;;5047963;28;19963;-83
2023/12/26 06:56:51;;;;;;;;;;;10.00;1.00;;;;;;5046999;28;20216;-84
2023/12/26 06:59:29;;;;;;;;;;;10.10;1.00;;;;;;5046200;28;20249;-84
2023/12/26 07:02:08;;;;;;;;;;;10.00;1.00;;;;;;5034782;28;19916;-83
2023/12/26 07:04:47;;;;;;;;;;;10.10;1.00;;;;;;5040096;28;19909;-83
2023/12/26 07:10:53;;;;;;;;;;;10.10;1.00;;;;;;5025551;28;19966;-84
2023/12/26 07:13:47;;;;;;;;;;;10.10;1.00;;;;;;5034095;28;20347;-90
2023/12/26 07:22:20;;;;;;;;;;;10.00;1.00;;;;;;5016204;28;19932;-86
2023/12/26 07:27:49;;;;;;;;;;;10.10;1.00;;;;;;5035686;28;19916;-85
2023/12/26 07:33:18;;;;;;;;;;;10.10;1.00;;;;;;5028966;28;20378;-82
2023/12/26 07:35:44;;;;;;;;;;;10.20;1.00;;;;;;5025517;28;19910;-85
2023/12/26 07:38:35;;;;;;;;;;;10.20;1.00;;;;;;5033802;28;19913;-84
2023/12/26 07:47:23;;;;;;;;;;;10.30;1.00;;;;;;5029314;28;19932;-86
2023/12/26 07:50:17;;;;;;;;;;;10.30;1.00;;;;;;5051542;28;19913;-83
2023/12/26 07:52:53;;;;;;;;;;;10.20;1.00;;;;;;5035263;28;20002;-85
2023/12/26 07:58:23;;;;;;;;;;;10.30;1.00;;;;;;5026064;28;19916;-85
2023/12/26 08:03:52;;;;;;;;;;;10.40;1.00;;;;;;5037791;28;19971;-84
2023/12/26 08:06:35;;;;;;;;;;;10.40;1.00;;;;;;5024873;28;19996;-84
2023/12/26 08:09:03;;;;;;;;;;;10.40;1.00;;;;;;5019067;28;19939;-86
2023/12/26 08:14:32;;;;;;;;;;;10.40;1.00;;;;;;5026284;28;20288;-85
2023/12/26 08:20:03;;;;;;;;;;;10.50;1.00;;;;;;5026511;28;19929;-86
2023/12/26 08:28:30;;;;;;;;;;;10.60;1.00;;;;;;5014039;28;19967;-76
2023/12/26 08:30:59;;;;;;;;;;;10.60;1.00;;;;;;5032866;28;19921;-76
2023/12/26 08:33:25;;;;;;;;;;;10.50;1.00;;;;;;5036071;28;19909;-76
2023/12/26 08:35:51;;;;;;;;;;;10.50;1.00;;;;;;5046001;28;20262;-77
2023/12/26 08:38:23;;;;;;;;;;;10.50;1.00;;;;;;5037661;28;19916;-76
2023/12/26 08:40:54;;;;;;;;;;;10.60;1.00;;;;;;5028010;28;19914;-76
2023/12/26 08:43:19;;;;;;;;;;;10.60;1.00;;;;;;5033549;28;19921;-77
2023/12/26 08:46:12;;;;;;;;;;;10.60;1.00;;;;;;5036780;28;20433;-80
2023/12/26 08:48:38;;;;;;;;;;;;;;;;;;5038685;28;20365;-76
2023/12/26 08:51:05;;;;;;;;;;;10.70;1.00;;;;;;5042390;28;20371;-77
2023/12/26 08:53:41;;;;;;;;;;;;;;;;;;5036077;28;19917;-77
2023/12/26 08:56:07;;;;;;;;;;;10.60;1.00;;;;;;5039495;28;19908;-77
2023/12/26 08:59:00;;;;;;;;;;;10.60;1.00;;;;;;5039683;28;19913;-85
2023/12/26 09:01:35;;;;;;;;;;;10.70;1.00;;;;;;5041380;28;19963;-84
2023/12/26 09:04:35;;;;;;;;;;;10.70;1.00;;;;;;5056830;28;20568;-85
2023/12/26 09:15:52;;;;;;;;;;;10.70;1.00;;;;;;5018647;28;19936;-77
2023/12/26 09:18:18;;;;;;;;;;;10.70;1.00;;;;;;5036348;28;19909;-76
2023/12/26 09:21:11;;;;;;;;;;;10.70;1.00;;;;;;5018937;28;20372;-76
2023/12/26 09:23:41;;;;;;;;;;;;;;;;;;5032409;28;19916;-76
2023/12/26 09:26:12;;;;;;;;;;;10.70;1.00;;;;;;5042095;28;19916;-76
2023/12/26 09:28:42;;;;;;;;;;;;;;;;;;5037212;28;19953;-83
2023/12/26 09:31:41;;;;;;;;;;;10.60;1.00;;;;;;5015613;28;19971;-86
2023/12/26 09:37:10;;;;;;;;;;;10.70;1.00;;;;;;5015608;28;22121;-84
2023/12/26 09:45:47;;;;;;;;;;;10.60;1.00;;;;;;5034614;28;19919;-84
2023/12/26 09:54:26;;;;;;;;;;;10.70;1.00;;;;;;5045192;28;19923;-83
2023/12/26 09:57:11;;;;;;;;;;;10.70;1.00;;;;;;5051282;28;19909;-85
2023/12/26 09:59:41;;;;;;;;;;;;;;;;;;5015165;28;20017;-85
2023/12/26 10:02:12;;;;;;;;;;;10.80;1.00;;;;;;5039557;28;19968;-84
2023/12/26 10:04:39;;;;;;;;;;;10.80;1.00;;;;;;5014892;28;21398;-85
2023/12/26 10:07:04;;;;;;;;;;;10.80;1.00;;;;;;5033973;28;20004;-86
2023/12/26 10:09:30;;;;;;;;;;;10.70;1.00;;;;;;5033644;28;19932;-84
2023/12/26 10:11:56;;;;;;;;;;;;;;;;;;5031875;28;19952;-86
2023/12/26 10:14:30;;;;;;;;;;;10.70;1.00;;;;;;5034721;28;19917;-84
2023/12/26 10:20:14;;;;;;;;;;;10.70;1.00;;;;;;5012934;28;19979;-85
2023/12/26 10:25:42;;;;;;;;;;;10.60;1.00;;;;;;5034924;28;19916;-84
2023/12/26 10:28:24;;;;;;;;;;;10.70;1.00;;;;;;5035255;28;19910;-85
2023/12/26 10:37:00;;;;;;;;;;;10.70;1.00;;;;;;5035020;28;19971;-84
2023/12/26 10:39:27;;;;;;;;;;;10.80;1.00;;;;;;5021715;28;19917;-84
2023/12/26 10:42:23;;;;;;;;;;;10.80;1.00;;;;;;5017675;28;19909;-85
2023/12/26 10:44:49;;;;;;;;;;;10.70;1.00;;;;;;5036041;28;19917;-84
2023/12/26 10:50:19;;;;;;;;;;;10.90;1.00;;;;;;5034713;28;20022;-85
2023/12/26 10:52:52;;;;;;;;;;;10.90;1.00;;;;;;5022590;28;19914;-85
2023/12/26 10:55:54;;;;;;;;;;;10.90;1.00;;;;;;5010634;28;19915;-84
2023/12/26 11:01:23;;;;;;;;;;;11.00;1.00;;;;;;5030260;28;19943;-76
2023/12/26 11:03:59;;;;;;;;;;;11.00;1.00;;;;;;5028928;28;19960;-78
2023/12/26 11:06:30;;;;;;;;;;;11.00;1.00;;;;;;5029167;28;19910;-76
2023/12/26 11:08:55;;;;;;;;;;;11.00;1.00;;;;;;5032971;28;19948;-76
2023/12/26 11:14:53;;;;;;;;;;;10.90;1.00;;;;;;5014910;28;19921;-77
2023/12/26 11:17:29;;;;;;;;;;;10.80;1.00;;;;;;5023747;28;19925;-76
2023/12/26 11:19:59;;;;;;;;;;;10.70;1.00;;;;;;5011490;28;19924;-76
2023/12/26 11:22:41;;;;;;;;;;;10.70;1.00;;;;;;5021293;28;19960;-77
2023/12/26 11:25:11;;;;;;;;;;;10.70;1.00;;;;;;5041651;28;19962;-76
2023/12/26 11:27:37;;;;;;;;;;;10.70;1.00;;;;;;5044161;28;19960;-77
2023/12/26 11:30:03;;;;;;;;;;;10.80;1.00;;;;;;5034126;28;19963;-76
2023/12/26 11:32:29;;;;;;;;;;;10.80;1.00;;;;;;5033530;28;19936;-76
2023/12/26 11:35:11;;;;;;;;;;;10.90;1.00;;;;;;5029236;28;20410;-76
2023/12/26 11:37:49;;;;;;;;;;;11.00;1.00;;;;;;5030500;28;19917;-76
2023/12/26 11:40:18;;;;;;;;;;;11.00;1.00;;;;;;5020645;28;19941;-76
2023/12/26 11:42:48;;;;;;;;;;;10.90;1.00;;;;;;5036459;28;19917;-76
2023/12/26 11:45:17;;;;;;;;;;;10.90;1.00;;;;;;5037397;28;19917;-77
2023/12/26 11:47:43;;;;;;;;;;;10.90;1.00;;;;;;5024560;28;19921;-75
2023/12/26 11:50:18;;;;;;;;;;;10.90;1.00;;;;;;5037671;28;19913;-77
2023/12/26 11:52:43;;;;;;;;;;;10.90;1.00;;;;;;5040114;28;19916;-75
2023/12/26 11:55:09;;;;;;;;;;;10.90;1.00;;;;;;5033005;28;19920;-76
2023/12/26 11:58:00;;;;;;;;;;;11.00;1.00;;;;;;5032889;28;19992;-76
2023/12/26 12:03:35;;;;;;;;;;;11.20;1.00;;;;;;5033261;28;19924;-83
2023/12/26 12:09:04;;;;;;;;;;;11.10;1.00;;;;;;5025446;28;19917;-84
2023/12/26 12:11:30;;;;;;;;;;;11.20;1.00;;;;;;5042516;28;19913;-84
2023/12/26 12:14:05;;;;;;;;;;;11.20;1.00;;;;;;5038322;28;20268;-84
2023/12/26 12:16:53;;;;;;;;;;;11.30;1.00;;;;;;5024219;28;19925;-83
2023/12/26 12:22:53;;;;;;;;;;;11.10;1.00;;;;;;5048209;28;19963;-85
2023/12/26 12:25:47;;;;;;;;;;;11.10;1.00;;;;;;5037499;28;19917;-84
2023/12/26 12:31:16;;;;;;;;;;;10.90;1.00;;;;;;5033258;28;19936;-76
2023/12/26 12:33:41;;;;;;;;;;;10.90;1.00;;;;;;5046515;28;20352;-76
2023/12/26 12:36:10;;;;;;;;;;;10.90;1.00;;;;;;5057070;28;20042;-76
2023/12/26 12:38:36;;;;;;;;;;;10.90;1.00;;;;;;5052272;28;19912;-76
2023/12/26 12:41:01;;;;;;;;;;;10.90;1.00;;;;;;5030784;28;20356;-76
2023/12/26 12:43:38;;;;;;;;;;;11.00;1.00;;;;;;5018944;28;19920;-77
2023/12/26 12:46:05;;;;;;;;;;;11.00;1.00;;;;;;5016715;28;19913;-83
2023/12/26 12:48:47;;;;;;;;;;;;;;;;;;5018529;28;20491;-83
2023/12/26 12:51:18;;;;;;;;;;;11.10;1.00;;;;;;5031921;28;19917;-80
2023/12/26 12:56:47;;;;;;;;;;;11.20;1.00;;;;;;5042443;28;19932;-82
2023/12/26 12:59:29;;;;;;;;;;;11.20;1.00;;;;;;5031709;28;19913;-82
2023/12/26 13:02:17;;;;;;;;;;;11.10;1.00;;;;;;5034446;28;19909;-82
2023/12/26 13:04:47;;;;;;;;;;;11.10;1.00;;;;;;5056369;28;19919;-82
2023/12/26 13:07:23;;;;;;;;;;;11.10;1.00;;;;;;5043164;28;19909;-82
2023/12/26 13:10:00;;;;;;;;;;;11.00;1.00;;;;;;5042376;28;19920;-82
2023/12/26 13:12:35;;;;;;;;;;;10.90;1.00;;;;;;5029751;28;19975;-81
2023/12/26 13:15:23;;;;;;;;;;;10.90;1.00;;;;;;5016974;28;19959;-81
2023/12/26 13:17:49;;;;;;;;;;;10.90;1.00;;;;;;5048277;28;20024;-77
2023/12/26 13:20:35;;;;;;;;;;;11.00;1.00;;;;;;5044054;28;19960;-78
2023/12/26 13:23:12;;;;;;;;;;;11.00;1.00;;;;;;5041240;28;19914;-79
2023/12/26 13:25:38;;;;;;;;;;;11.00;1.00;;;;;;5036415;28;20007;-78
2023/12/26 13:28:07;;;;;;;;;;;11.10;1.00;;;;;;5030530;28;20434;-78
2023/12/26 13:30:32;;;;;;;;;;;11.20;1.00;;;;;;5035232;28;20368;-77
2023/12/26 13:32:59;;;;;;;;;;;11.30;1.00;;;;;;5035288;28;20048;-90
2023/12/26 13:35:26;;;;;;;;;;;11.40;1.00;;;;;;5035009;28;19913;-92
2023/12/26 13:43:57;;;;;;;;;;;11.60;1.00;;;;;;5021078;28;19921;-78
2023/12/26 13:46:35;;;;;;;;;;;11.60;1.00;;;;;;5036220;28;20349;-89
2023/12/26 13:58:47;;;;;;;;;;;11.60;1.00;;;;;;5031546;28;19917;-88
2023/12/26 14:07:31;;;;;;;;;;;11.60;1.00;;;;;;5029862;28;19967;-77
2023/12/26 14:10:00;;;;;;;;;;;11.60;1.00;;;;;;5017102;28;19961;-76
2023/12/26 14:12:53;;;;;;;;;;;11.60;1.00;;;;;;5036218;28;19913;-76
2023/12/26 14:15:41;;;;;;;;;;;11.60;1.00;;;;;;5031901;28;19917;-76
2023/12/26 14:21:10;;;;;;;;;;;11.60;1.00;;;;;;5027513;28;20404;-85
2023/12/26 14:26:38;;;;;;;;;;;11.40;1.00;;;;;;5033500;28;19916;-81
2023/12/26 14:29:05;;;;;;;;;;;11.40;1.00;;;;;;5033909;28;19913;-82
2023/12/26 14:31:53;;;;;;;;;;;11.30;1.00;;;;;;5034740;28;19910;-77
2023/12/26 14:34:23;;;;;;;;;;;11.20;1.00;;;;;;5040659;28;20012;-76
2023/12/26 14:37:17;;;;;;;;;;;11.30;1.00;;;;;;5034484;28;19992;-80
2023/12/26 14:40:00;;;;;;;;;;;11.10;1.00;;;;;;5016715;28;19909;-77
2023/12/26 14:42:25;;;;;;;;;;;11.10;1.00;;;;;;5037316;28;19925;-77
2023/12/26 14:47:54;;;;;;;;;;;11.10;1.00;;;;;;5025232;28;20002;-78
2023/12/26 14:51:53;;;;;;;;;;;11.10;1.00;;;;;;5104788;27;20279;-76
2023/12/26 14:54:24;;;;;;;;;;;11.00;1.00;;;;;;5096416;28;20003;-75
2023/12/26 14:56:54;;;;;;;;;;;11.00;1.00;;;;;;5104630;28;20261;-75
2023/12/26 15:02:06;;;;;;;;;;;10.90;1.00;;;;;;5094163;28;19971;-77
2023/12/26 15:04:42;;;;;;;;;;;10.90;1.00;;;;;;5152085;27;19912;-76
2023/12/26 15:07:12;;;;;;;;;;;10.90;1.00;;;;;;5134693;27;19916;-76
2023/12/26 15:09:37;;;;;;;;;;;10.90;1.00;;;;;;5108941;28;19931;-76
2023/12/26 15:12:03;;;;;;;;;;;10.90;1.00;;;;;;5104605;28;19912;-75
2023/12/26 15:14:36;;;;;;;;;;;10.90;1.00;;;;;;5114365;28;19934;-76
2023/12/26 15:17:01;;;;;;;;;;;10.90;1.00;;;;;;5106594;28;19915;-75
2023/12/26 15:19:27;;;;;;;;;;;10.80;1.00;;;;;;5082333;27;20271;-74
2023/12/26 15:21:54;;;;;;;;;;;10.80;1.00;;;;;;5081316;28;19913;-75
2023/12/26 15:24:20;;;;;;;;;;;;;;;;;;5084306;28;20371;-74
2023/12/26 15:27:05;;;;;;;;;;;10.80;1.00;;;;;;5081320;28;19966;-78
2023/12/26 15:29:36;;;;;;;;;;;10.80;1.00;;;;;;5070606;28;19909;-76
2023/12/26 15:32:11;;;;;;;;;;;;;;;;;;5081707;28;20003;-74
2023/12/26 15:34:48;;;;;;;;;;;10.80;1.00;;;;;;5081934;28;19913;-81
2023/12/26 15:37:41;;;;;;;;;;;10.80;1.00;;;;;;5084339;28;19948;-81
2023/12/26 15:40:07;;;;;;;;;;;10.80;1.00;;;;;;5074320;28;19917;-81
2023/12/26 15:42:42;;;;;;;;;;;10.80;1.00;;;;;;5112146;27;19920;-81
2023/12/26 15:45:08;;;;;;;;;;;;;;;;;;5092581;28;20372;-76
2023/12/26 15:47:34;;;;;;;;;;;10.70;1.00;;;;;;5090033;28;19916;-71
2023/12/26 15:50:00;;;;;;;;;;;10.70;1.00;;;;;;5102785;28;19920;-71
2023/12/26 15:52:25;;;;;;;;;;;10.70;1.00;;;;;;5106689;28;19915;-74
2023/12/26 15:54:51;;;;;;;;;;;10.60;1.00;;;;;;5091851;28;19962;-74
2023/12/26 15:57:18;;;;;;;;;;;10.50;1.00;;;;;;5101107;28;19916;-74
2023/12/26 15:59:43;;;;;;;;;;;10.50;1.00;;;;;;5109090;28;19941;-74
2023/12/26 16:02:13;;;;;;;;;;;10.40;1.00;;;;;;5070447;28;19916;-74
2023/12/26 16:04:42;;;;;;;;;;;10.40;1.00;;;;;;5089050;28;19916;-77
2023/12/26 16:07:07;;;;;;;;;;;10.30;1.00;;;;;;5082378;28;19908;-78
2023/12/26 16:09:33;;;;;;;;;;;10.20;1.00;;;;;;5096231;28;19919;-84
2023/12/26 16:12:07;;;;;;;;;;;10.10;1.00;;;;;;5088626;28;20357;-82
2023/12/26 16:14:41;;;;;;;;;;;10.10;1.00;;;;;;5077751;28;19983;-78
2023/12/26 16:17:12;;;;;;;;;;;10.10;1.00;;;;;;5070141;28;19953;-78
2023/12/26 16:19:40;;;;;;;;;;;10.00;1.00;;;;;;5096172;28;19908;-73
2023/12/26 16:22:06;;;;;;;;;;;9.90;1.00;;;;;;5096899;28;19962;-73
2023/12/26 16:24:42;;;;;;;;;;;9.80;1.00;;;;;;5096451;28;19916;-74
2023/12/26 16:27:07;;;;;;;;;;;9.70;1.00;;;;;;5110744;28;20244;-74
2023/12/26 16:29:36;;;;;;;;;;;;;;;;;;5071118;28;19912;-73
2023/12/26 16:32:02;;;;;;;;;;;;;;;;;;5085324;28;19943;-72
2023/12/26 16:34:27;;;;;;;;;;;9.40;1.00;;;;;;5088004;28;19908;-77
2023/12/26 16:36:53;;;;;;;;;;;9.30;1.00;;;;;;5084815;28;19917;-78
2023/12/26 16:42:10;;;;;;;;;;;9.10;1.00;;;;;;5093194;28;19962;-79
2023/12/26 16:44:48;;;;;;;;;;;9.00;1.00;;;;;;5094634;28;19912;-78
2023/12/26 16:47:24;;;;;;;;;;;9.00;1.00;;;;;;5075955;28;19908;-78
2023/12/26 16:49:51;;;;;;;;;;;8.90;1.00;;;;;;5082193;28;20003;-77
2023/12/26 16:52:24;;;;;;;;;;;8.80;1.00;;;;;;5085320;28;19916;-77
2023/12/26 16:55:17;;;;;;;;;;;8.70;1.00;;;;;;5085365;28;19916;-78
2023/12/26 16:57:48;;;;;;;;;;;8.70;1.00;;;;;;5059454;28;19995;-78
2023/12/26 17:03:23;;;;;;;;;;;8.70;1.00;;;;;;5085710;28;19919;-80
2023/12/26 17:06:12;;;;;;;;;;;8.70;1.00;;;;;;5085495;28;20007;-77
2023/12/26 17:14:44;;;;;;;;;;;8.70;1.00;;;;;;5080374;28;19967;-77
2023/12/26 17:17:12;;;;;;;;;;;8.70;1.00;;;;;;5084565;28;19916;-77
2023/12/26 17:19:42;;;;;;;;;;;8.70;1.00;;;;;;5085306;28;19912;-77
2023/12/26 17:36:27;;;;;;;;;;;8.80;1.00;;;;;;5075052;28;19919;-77
2023/12/26 17:38:54;;;;;;;;;;;;;;;;;;5082500;28;19908;-76
2023/12/26 17:44:04;;;;;;;;;;;8.80;1.00;;;;;;5080569;28;20382;-76
2023/12/26 17:46:42;;;;;;;;;;;8.90;1.00;;;;;;5077053;28;19947;-78
2023/12/26 17:49:16;;;;;;;;;;;8.90;1.00;;;;;;5080704;28;19920;-82
2023/12/26 17:51:41;;;;;;;;;;;8.90;1.00;;;;;;5088353;28;20424;-83
2023/12/26 17:54:41;;;;;;;;;;;9.00;1.00;;;;;;5082058;28;19916;-80
2023/12/26 17:57:07;;;;;;;;;;;;;;;;;;5085734;28;20021;-76
2023/12/26 17:59:36;;;;;;;;;;;8.90;1.00;;;;;;5077481;28;19919;-77
2023/12/26 18:02:03;;;;;;;;;;;;;;;;;;5076899;28;19912;-77
2023/12/26 18:04:42;;;;;;;;;;;;;;;;;;5076661;28;19919;-76
2023/12/26 18:07:07;;;;;;;;;;;8.80;1.00;;;;;;5080859;28;19913;-82
2023/12/26 18:12:17;;;;;;;;;;;8.80;1.00;;;;;;5080158;28;19919;-83
2023/12/26 18:14:53;;;;;;;;;;;;;;;;;;5078462;28;19913;-83
2023/12/26 18:17:19;;;;;;;;;;;8.70;1.00;;;;;;5089641;28;20032;-86
2023/12/26 18:22:30;;;;;;;;;;;8.60;1.00;;;;;;5085499;28;19923;-85
2023/12/26 18:33:27;;;;;;;;;;;8.20;1.00;;;;;;5073970;28;19934;-81
2023/12/26 18:38:56;;;;;;;;;;;;;;;;;;5076231;28;19915;-85
2023/12/26 18:41:22;;;;;;;;;;;;;;;;;;5089150;28;20290;-83
2023/12/26 18:59:03;;;;;;;;;;;7.80;1.00;;;;;;5084774;28;19966;-89
2023/12/26 19:08:06;;;;;;;;;;;7.70;1.00;;;;;;5085286;28;19962;-83
2023/12/26 19:16:42;;;;;;;;;;;7.50;1.00;;;;;;5101678;28;19915;-85
2023/12/26 19:19:42;;;;;;;;;;;7.50;1.00;;;;;;5076412;28;19912;-86
2023/12/26 19:22:24;;;;;;;;;;;7.40;1.00;;;;;;5074816;28;19974;-76
2023/12/26 19:27:42;;;;;;;;;;;;;;;;;;5089041;28;19973;-77
2023/12/26 19:33:30;;;;;;;;;;;7.00;1.00;;;;;;5080810;28;20413;-77
2023/12/26 19:36:00;;;;;;;;;;;7.00;1.00;;;;;;5074546;28;19909;-77
2023/12/26 19:38:48;;;;;;;;;;;6.90;1.00;;;;;;5084648;28;20256;-76
2023/12/26 19:41:18;;;;;;;;;;;6.90;1.00;;;;;;5088075;28;20413;-76
2023/12/26 19:44:00;;;;;;;;;;;6.80;1.00;;;;;;5079804;28;19915;-76
2023/12/26 19:47:00;;;;;;;;;;;6.70;1.00;;;;;;5084358;28;19958;-76
2023/12/26 19:50:00;;;;;;;;;;;6.70;3.00;;;;;;5086453;28;19913;-76
2023/12/26 19:59:06;;;;;;;;;;;6.60;6.20;;;;;;5089263;28;19934;-85
2023/12/26 20:02:06;;;;;;;;;;;6.70;9.00;;;;;;5084489;28;20372;-85
2023/12/26 20:07:36;;;;;;;;;;;6.80;13.20;;;;;;5083653;28;19919;-76
2023/12/26 20:10:18;;;;;;;;;;;;;;;;;;5077531;28;20531;-77
2023/12/26 20:15:46;;;;;;;;;;;6.90;17.70;;;;;;5102772;28;20011;-77
2023/12/26 20:18:30;;;;;;;;;;;;;;;;;;5091720;28;19959;-76
2023/12/26 20:21:06;;;;;;;;;;;7.00;19.10;;;;;;5077487;28;19923;-77
2023/12/26 20:30:06;;;;;;;;;;;7.10;20.90;;;;;;5083604;28;19916;-85
2023/12/26 20:35:35;;;;;;;;;;;;;;;;;;5089762;28;20397;-84
2023/12/26 20:38:36;;;;;;;;;;;7.20;18.00;;;;;;5089746;28;19909;-77
2023/12/26 20:47:30;;;;;;;;;;;7.30;17.60;;;;;;5078584;28;19920;-77
2023/12/26 20:50:07;;;;;;;;;;;7.30;19.30;;;;;;5089775;28;19916;-77
2023/12/26 20:52:48;;;;;;;;;;;7.40;19.90;;;;;;5082273;28;20350;-78
2023/12/26 20:57:58;;;;;;;;;;;7.50;17.00;;;;;;5080848;28;20689;-77
2023/12/26 21:00:28;;;;;;;;;;;7.50;15.30;;;;;;5087680;28;19916;-77
2023/12/26 21:03:18;;;;;;;;;;;7.50;15.30;;;;;;5076221;28;20011;-77
2023/12/26 21:05:54;;;;;;;;;;;7.50;13.60;;;;;;5089780;28;19908;-77
2023/12/26 21:08:54;;;;;;;;;;;7.60;12.90;;;;;;5080232;28;19940;-85
2023/12/26 21:14:24;;;;;;;;;;;7.50;13.10;;;;;;5085171;28;19962;-85